Flight Track Log - Related Links

Times and Time Zones

All times are in EDT time to prevent confusion due to time zone crossing. See the FDX657 flight status page for this flight to view local times or setup timezone preferences in your user account.

Time Position Orientation Groundspeed Altitude Reporting Facility
EDT Latitude Longitude Course Direction KTS MPH feet Rate Location/Type
Thu 08:01:15 AM 41.9311 -72.7025 268° West 152 175 1,200  Level Boston Center
Thu 08:02:39 AM 41.9289 -72.7917 267° West 168 193 4,400 3,042 Climbing Boston Center
Thu 08:03:39 AM 41.9244 -72.8894 268° West 218 251 8,500 3,400 Climbing Boston Center
Thu 08:04:39 AM 41.9217 -72.9981 267° West 263 303 11,200 2,850 Climbing Boston Center
Thu 08:05:39 AM 41.9167 -73.1458 267° West 342 394 14,200 3,100 Climbing Boston Center
Thu 08:06:39 AM 41.9117 -73.2825 240° Southwest 393 452 17,400 3,100 Climbing Boston Center
Thu 08:07:39 AM 41.8542 -73.4183 225° Southwest 404 465 20,400 2,800 Climbing Boston Center
Thu 08:08:39 AM 41.7656 -73.5367 220° Southwest 422 486 23,000 2,300 Climbing Boston Center
Thu 08:09:39 AM 41.6667 -73.6461 226° Southwest 447 514 25,000 2,605 Climbing Boston Center
Thu 08:11:11 AM 41.5122 -73.8604 226° Southwest 470 541 29,600 2,732 Climbing FlightAware ADS-B
Thu 08:11:42 AM 41.4662 -73.9236 225° Southwest 473 544 30,600 1,938 Climbing FlightAware ADS-B
Thu 08:12:16 AM 41.4145 -73.9936 226° Southwest 473 544 31,700 1,313 Climbing FlightAware ADS-B
Thu 08:12:46 AM 41.3692 -74.0554 226° Southwest 459 528 32,000 295 Climbing FlightAware ADS-B
Thu 08:13:17 AM 41.3232 -74.1179 226° Southwest 430 495 32,000  Level FlightAware ADS-B
Thu 08:13:49 AM 41.2746 -74.1837 225° Southwest 469 540 32,000  Level FlightAware ADS-B
Thu 08:14:21 AM 41.2262 -74.2490 225° Southwest 459 528 32,000  Level FlightAware ADS-B
Thu 08:14:52 AM 41.1803 -74.3108 225° Southwest 445 512 32,000  Level FlightAware ADS-B
Thu 08:15:24 AM 41.1333 -74.3731 226° Southwest 459 528 32,000  Level FlightAware ADS-B
Thu 08:15:56 AM 41.0861 -74.4379 225° Southwest 460 529 32,000  Level FlightAware ADS-B
Thu 08:16:28 AM 41.0386 -74.5017 225° Southwest 465 535 32,000  Level FlightAware ADS-B
Thu 08:16:59 AM 40.9932 -74.5625 225° Southwest 446 513 32,000  Level FlightAware ADS-B
Thu 08:17:30 AM 40.9464 -74.6250 225° Southwest 453 521 32,000  Level FlightAware ADS-B
Thu 08:18:00 AM 40.9019 -74.6844 225° Southwest 454 522 32,000  Level FlightAware ADS-B
Thu 08:18:31 AM 40.8566 -74.7448 227° Southwest 448 516 32,000  Level FlightAware ADS-B
Thu 08:19:01 AM 40.8123 -74.8066 233° Southwest 457 526 32,000  Level FlightAware ADS-B
Thu 08:19:31 AM 40.7738 -74.8729 239° Southwest 453 521 32,000  Level FlightAware ADS-B
Thu 08:20:02 AM 40.7406 -74.9448 240° Southwest 451 519 32,000  Level FlightAware ADS-B
Thu 08:20:32 AM 40.7088 -75.0179 240° Southwest 468 539 32,000  Level FlightAware ADS-B
Thu 08:21:03 AM 40.6759 -75.0920 239° Southwest 455 524 32,000  Level FlightAware ADS-B
Thu 08:21:33 AM 40.6437 -75.1633 239° Southwest 457 526 32,000  Level FlightAware ADS-B
Thu 08:22:04 AM 40.6101 -75.2366 239° Southwest 452 520 32,000  Level FlightAware ADS-B
Thu 08:22:35 AM 40.5770 -75.3090 239° Southwest 478 550 32,000  Level FlightAware ADS-B
Thu 08:23:05 AM 40.5444 -75.3806 239° Southwest 459 528 32,000  Level FlightAware ADS-B
Thu 08:23:35 AM 40.5109 -75.4534 239° Southwest 443 510 32,000  Level FlightAware ADS-B
Thu 08:24:06 AM 40.4767 -75.5273 239° Southwest 469 540 32,000  Level FlightAware ADS-B
Thu 08:24:36 AM 40.4436 -75.5988 239° Southwest 474 545 32,000  Level FlightAware ADS-B
Thu 08:25:07 AM 40.4100 -75.6718 239° Southwest 442 509 32,000  Level FlightAware ADS-B
Thu 08:25:37 AM 40.3761 -75.7448 239° Southwest 461 531 32,000  Level FlightAware ADS-B
Thu 08:26:07 AM 40.3430 -75.8158 239° Southwest 459 528 32,000  Level FlightAware ADS-B
Thu 08:26:38 AM 40.3100 -75.8867 239° Southwest 477 549 32,000  Level FlightAware ADS-B
Thu 08:27:09 AM 40.2749 -75.9620 238° Southwest 463 533 32,000  Level FlightAware ADS-B
Thu 08:27:40 AM 40.2410 -76.0343 238° Southwest 452 520 32,000  Level FlightAware ADS-B
Thu 08:28:11 AM 40.2070 -76.1066 238° Southwest 458 527 32,000  Level FlightAware ADS-B
Thu 08:28:41 AM 40.1723 -76.1803 238° Southwest 469 540 32,000  Level FlightAware ADS-B
Thu 08:29:13 AM 40.1372 -76.2549 238° Southwest 449 517 32,000  Level FlightAware ADS-B
Thu 08:29:44 AM 40.1018 -76.3299 239° Southwest 481 554 32,000  Level FlightAware ADS-B
Thu 08:30:15 AM 40.0677 -76.4041 239° Southwest 456 525 32,000  Level FlightAware ADS-B
Thu 08:30:47 AM 40.0330 -76.4796 239° Southwest 459 528 32,000  Level FlightAware ADS-B
Thu 08:31:19 AM 39.9976 -76.5562 239° Southwest 451 519 32,000  Level FlightAware ADS-B
Thu 08:31:50 AM 39.9624 -76.6319 239° Southwest 467 537 32,000  Level FlightAware ADS-B
Thu 08:32:21 AM 39.9276 -76.7069 239° Southwest 467 537 32,000  Level FlightAware ADS-B
Thu 08:32:58 AM 39.8864 -76.7953 239° Southwest 458 527 32,000  Level FlightAware ADS-B
Thu 08:33:32 AM 39.8477 -76.8777 239° Southwest 477 549 32,000  Level FlightAware ADS-B
Thu 08:34:04 AM 39.8121 -76.9539 238° Southwest 457 526 32,000  Level FlightAware ADS-B
Thu 08:34:34 AM 39.7767 -77.0287 239° Southwest 479 551 32,000  Level FlightAware ADS-B
Thu 08:35:09 AM 39.7374 -77.1122 238° Southwest 481 554 32,000  Level FlightAware ADS-B
Thu 08:35:42 AM 39.6991 -77.1932 238° Southwest 485 558 32,000  Level FlightAware ADS-B
Thu 08:36:13 AM 39.6636 -77.2679 238° Southwest 460 529 32,000  Level FlightAware ADS-B
Thu 08:36:44 AM 39.6279 -77.3429 238° Southwest 491 565 32,000  Level FlightAware ADS-B
Thu 08:37:17 AM 39.5911 -77.4207 238° Southwest 468 539 32,000  Level FlightAware ADS-B
Thu 08:37:48 AM 39.5549 -77.4960 238° Southwest 468 539 32,000  Level FlightAware ADS-B
Thu 08:38:21 AM 39.5161 -77.5776 238° Southwest 485 558 32,000  Level FlightAware ADS-B
Thu 08:38:53 AM 39.4780 -77.6569 238° Southwest 476 548 32,000  Level FlightAware ADS-B
Thu 08:39:26 AM 39.4406 -77.7348 238° Southwest 474 545 32,000  Level FlightAware ADS-B
Thu 08:39:56 AM 39.4047 -77.8091 240° Southwest 470 541 32,000  Level FlightAware ADS-B
Thu 08:40:27 AM 39.3693 -77.8878 243° Southwest 501 577 32,000  Level FlightAware ADS-B
Thu 08:41:02 AM 39.3342 -77.9765 243° Southwest 488 562 32,000  Level FlightAware ADS-B
Thu 08:41:57 AM 39.2780 -78.1191 242° Southwest 490 564 32,000  Level FlightAware ADS-B
Thu 08:42:39 AM 39.2369 -78.2206 243° Southwest 486 559 32,000  Level Washington Center
Thu 08:43:37 AM 39.1753 -78.3736 242° Southwest 486 559 32,000  Level Washington Center
Thu 08:44:37 AM 39.1133 -78.5236 243° Southwest 486 559 32,000  Level Washington Center
Thu 08:45:39 AM 39.0531 -78.6789 241° Southwest 481 554 32,000  Level Washington Center
Thu 08:46:37 AM 38.9908 -78.8231 243° Southwest 481 554 32,000  Level Washington Center
Thu 08:47:37 AM 38.9306 -78.9725 242° Southwest 481 554 32,000  Level Washington Center
Thu 08:48:38 AM 38.8678 -79.1244 248° West 481 554 32,000  Level Washington Center
Thu 08:49:36 AM 38.8172 -79.2819 259° West 486 559 32,000  Level Washington Center
Thu 08:50:37 AM 38.7936 -79.4353 259° West 476 548 32,000  Level Washington Center
Thu 08:51:38 AM 38.7694 -79.6017 258° West 481 554 32,000  Level Washington Center
Thu 08:52:39 AM 38.7381 -79.7836 257° West 486 559 32,000  Level Washington Center
Thu 08:53:36 AM 38.7072 -79.9494 257° West 486 559 32,000  Level Washington Center
Thu 08:54:37 AM 38.6761 -80.1153 255° West 486 559 32,000  Level Washington Center
Thu 08:55:59 AM 38.6364 -80.3108 256° West 484 557 32,000  Level Indianapolis Center
Thu 08:56:59 AM 38.6033 -80.4744 256° West 479 551 32,000  Level Indianapolis Center
Thu 08:57:59 AM 38.5719 -80.6378 257° West 473 544 32,000  Level Indianapolis Center
Thu 08:58:59 AM 38.5386 -80.8169 256° West 473 544 32,000  Level Indianapolis Center
Thu 08:59:59 AM 38.5069 -80.9772 256° West 473 544 32,000  Level Indianapolis Center
Thu 09:00:59 AM 38.4769 -81.1322 256° West 468 539 32,000  Level Indianapolis Center
Thu 09:01:59 AM 38.4444 -81.2925 255° West 463 533 32,000  Level Indianapolis Center
Thu 09:02:59 AM 38.4119 -81.4500 255° West 463 533 32,000  Level Indianapolis Center
Thu 09:03:59 AM 38.3792 -81.6072 257° West 463 533 32,000  Level Indianapolis Center
Thu 09:04:59 AM 38.3506 -81.7642 251° West 463 533 32,000  Level Indianapolis Center
Thu 09:05:59 AM 38.3089 -81.9186 250° West 463 533 32,000  Level Indianapolis Center
Thu 09:06:59 AM 38.2650 -82.0706 251° West 463 533 32,000  Level Indianapolis Center
Thu 09:07:59 AM 38.2231 -82.2219 251° West 463 533 32,000  Level Indianapolis Center
Thu 09:08:59 AM 38.1889 -82.3469 250° West 468 539 32,000  Level Indianapolis Center
Thu 09:10:22 AM 38.1183 -82.5878 250° West 458 527 32,000  Level FlightAware ADS-B
Thu 09:10:54 AM 38.0951 -82.6683 250° West 447 514 32,000  Level FlightAware ADS-B
Thu 09:11:39 AM 38.0618 -82.7832 250° West 461 531 32,000  Level FlightAware ADS-B
Thu 09:12:10 AM 38.0393 -82.8611 250° West 459 528 32,000  Level FlightAware ADS-B
Thu 09:12:49 AM 38.0108 -82.9593 250° West 460 529 32,000  Level FlightAware ADS-B
Thu 09:13:33 AM 37.9813 -83.0601 250° West 379 436 32,000  Level FlightAware ADS-B
Thu 09:14:51 AM 37.9212 -83.2649 249° West 458 527 32,000  Level FlightAware ADS-B
Thu 09:15:33 AM 37.8901 -83.3701 251° West 438 504 32,000  Level FlightAware ADS-B
Thu 09:15:59 AM 37.8739 -83.4308 250° West 463 533 32,000  Level Indianapolis Center
Thu 09:16:59 AM 37.8322 -83.5753 248° West 457 526 32,000  Level Indianapolis Center
Thu 09:17:59 AM 37.7861 -83.7225 249° West 449 517 32,000  Level Indianapolis Center
Thu 09:18:59 AM 37.7422 -83.8694 249° West 454 522 32,000  Level Indianapolis Center
Thu 09:20:39 AM 37.6644 -84.1227 249° West 457 526 32,000  Level FlightAware ADS-B
Thu 09:21:15 AM 37.6378 -84.2097 249° West 440 506 32,000  Level FlightAware ADS-B
Thu 09:21:45 AM 37.6156 -84.2820 249° West 447 514 32,000  Level FlightAware ADS-B
Thu 09:22:16 AM 37.5921 -84.3583 249° West 456 525 32,000  Level FlightAware ADS-B
Thu 09:22:48 AM 37.5684 -84.4352 249° West 454 522 32,000  Level FlightAware ADS-B
Thu 09:23:18 AM 37.5458 -84.5084 249° West 440 506 32,000  Level FlightAware ADS-B
Thu 09:23:50 AM 37.5219 -84.5860 249° West 458 527 32,000  Level FlightAware ADS-B
Thu 09:24:20 AM 37.4988 -84.6603 249° West 453 521 32,000  Level FlightAware ADS-B
Thu 09:24:52 AM 37.4746 -84.7383 249° West 462 532 32,000  Level FlightAware ADS-B
Thu 09:25:23 AM 37.4521 -84.8108 249° West 434 499 32,000  Level FlightAware ADS-B
Thu 09:25:53 AM 37.4287 -84.8862 249° West 471 542 32,000  Level FlightAware ADS-B
Thu 09:26:24 AM 37.4059 -84.9597 248° West 436 502 32,000  Level FlightAware ADS-B
Thu 09:26:54 AM 37.3824 -85.0342 248° West 447 514 32,000  Level FlightAware ADS-B
Thu 09:27:25 AM 37.3587 -85.1096 248° West 456 525 32,000  Level FlightAware ADS-B
Thu 09:27:55 AM 37.3357 -85.1827 248° West 447 514 32,000  Level FlightAware ADS-B
Thu 09:28:25 AM 37.3123 -85.2567 248° West 456 525 32,000  Level FlightAware ADS-B
Thu 09:28:57 AM 37.2880 -85.3341 248° West 493 567 32,000  Level FlightAware ADS-B
Thu 09:29:32 AM 37.2601 -85.4214 248° West 452 520 32,000  Level FlightAware ADS-B
Thu 09:30:07 AM 37.2327 -85.5073 248° West 481 554 32,000  Level FlightAware ADS-B
Thu 09:30:37 AM 37.2097 -85.5802 248° West 445 512 32,000  Level FlightAware ADS-B
Thu 09:31:08 AM 37.1856 -85.6557 248° West 464 534 32,000  Level FlightAware ADS-B
Thu 09:31:52 AM 37.1510 -85.7630 248° West 462 532 32,000  Level FlightAware ADS-B
Thu 09:32:22 AM 37.1273 -85.8362 248° West 457 526 32,000  Level FlightAware ADS-B
Thu 09:32:53 AM 37.1031 -85.9107 248° West 454 522 32,000  Level FlightAware ADS-B
Thu 09:33:23 AM 37.0790 -85.9849 248° West 446 513 32,000  Level FlightAware ADS-B
Thu 09:33:53 AM 37.0553 -86.0576 248° West 447 514 32,000  Level FlightAware ADS-B
Thu 09:34:32 AM 37.0243 -86.1528 248° West 459 528 32,000  Level FlightAware ADS-B
Thu 09:35:02 AM 37.0000 -86.2269 248° West 457 526 32,000  Level FlightAware ADS-B
Thu 09:35:39 AM 36.9710 -86.3153 248° West 460 529 32,000  Level FlightAware ADS-B
Thu 09:36:18 AM 36.9402 -86.4096 243° Southwest 450 518 32,000  Level FlightAware ADS-B
Thu 09:37:04 AM 36.8973 -86.5158 241° Southwest 453 521 32,000  Level FlightAware ADS-B
Thu 09:38:02 AM 36.8386 -86.6490 242° Southwest 457 526 32,000  Level FlightAware ADS-B
Thu 09:38:41 AM 36.8078 -86.7214 241° Southwest 460 529 32,000  Level Memphis Center
Thu 09:39:41 AM 36.7469 -86.8561 242° Southwest 460 529 32,000  Level Memphis Center
Thu 09:40:41 AM 36.6883 -86.9958 242° Southwest 460 529 32,000  Level Memphis Center
Thu 09:41:41 AM 36.6275 -87.1353 239° Southwest 460 529 32,000  Level Memphis Center
Thu 09:42:41 AM 36.5619 -87.2697 242° Southwest 460 529 32,000  Level Memphis Center
Thu 09:43:41 AM 36.5008 -87.4114 241° Southwest 460 529 32,000  Level Memphis Center
Thu 09:44:41 AM 36.4394 -87.5478 240° Southwest 465 535 32,000  Level Memphis Center
Thu 09:45:41 AM 36.3758 -87.6867 241° Southwest 465 535 32,000  Level Memphis Center
Thu 09:46:41 AM 36.3142 -87.8253 240° Southwest 465 535 32,000  Level Memphis Center
Thu 09:47:41 AM 36.2500 -87.9611 240° Southwest 465 535 32,000  Level Memphis Center
Thu 09:48:41 AM 36.1819 -88.1069 241° Southwest 465 535 32,000 -550 Level Memphis Center
Thu 09:49:41 AM 36.1278 -88.2267 239° Southwest 460 529 30,900 -1,300 Descending Memphis Center
Thu 09:50:41 AM 36.0633 -88.3594 241° Southwest 460 529 29,400 -1,700 Descending Memphis Center
Thu 09:51:41 AM 36.0028 -88.4942 239° Southwest 455 524 27,500 -2,150 Descending Memphis Center
Thu 09:52:41 AM 35.9358 -88.6292 240° Southwest 444 511 25,100 -1,850 Descending Memphis Center
Thu 09:53:41 AM 35.8772 -88.7558 239° Southwest 439 505 23,800 -1,850 Descending Memphis Center
Thu 09:54:41 AM 35.8203 -88.8747 240° Southwest 424 488 21,400 -2,550 Descending Memphis Center
Thu 09:55:41 AM 35.7633 -88.9961 235° Southwest 418 481 18,700 -2,650 Descending Memphis Center
Thu 09:56:41 AM 35.6978 -89.1094 229° Southwest 413 475 16,100 -2,750 Descending Memphis Center
Thu 09:57:41 AM 35.6236 -89.2128 225° Southwest 406 467 13,200 -2,939 Descending Memphis Center
Thu 09:58:19 AM 35.5747 -89.2736 227° Southwest 409 471 11,300 -2,385 Descending FAA TRACON SMA TRACON (SMA)
Thu 09:58:59 AM 35.5306 -89.3317 225° Southwest 387 445 10,100 -975 Descending FAA TRACON SMA TRACON (SMA)
Thu 09:59:39 AM 35.4836 -89.3897 248° West 348 400 10,000 -75 Descending FAA TRACON SMA TRACON (SMA)
Thu 10:00:19 AM 35.4614 -89.4558 260° West 308 354 10,000 -600 Level FAA TRACON SMA TRACON (SMA)
Thu 10:00:59 AM 35.4531 -89.5156 259° West 292 336 9,200 -1,125 Descending FAA TRACON SMA TRACON (SMA)
Thu 10:01:39 AM 35.4431 -89.5811 259° West 285 328 8,500 -1,050 Descending FAA TRACON SMA TRACON (SMA)
Thu 10:02:19 AM 35.4328 -89.6453 248° West 279 321 7,800 -1,125 Descending FAA TRACON SMA TRACON (SMA)
Thu 10:02:59 AM 35.4147 -89.6989 240° Southwest 278 320 7,000 -1,350 Descending FAA TRACON SMA TRACON (SMA)
Thu 10:03:39 AM 35.3881 -89.7553 239° Southwest 277 319 6,000 -1,500 Descending FAA TRACON SMA TRACON (SMA)
Thu 10:04:19 AM 35.3611 -89.8106 230° Southwest 274 315 5,000 -1,575 Descending FAA TRACON SMA TRACON (SMA)
Thu 10:04:59 AM 35.3322 -89.8531 231° Southwest 264 304 3,900 -1,407 Descending FAA TRACON SMA TRACON (SMA)
Thu 10:05:40 AM 35.3008 -89.9014 232° Southwest 263 303 3,100 -675 Descending FAA TRACON SMA TRACON (SMA)
Thu 10:06:19 AM 35.2733 -89.9439 230° Southwest 238 274 3,000 -300 Descending FAA TRACON SMA TRACON (SMA)
Thu 10:07:00 AM 35.2525 -89.9742 184° South 195 224 2,700 -750 Descending FAA TRACON SMA TRACON (SMA)
Thu 10:07:39 AM 35.2200 -89.9769 179° South 178 205 2,000 -424 Descending FAA TRACON SMA TRACON (SMA)
Thu 10:08:39 AM 35.1722 -89.9758 179° South 171 197 2,000  Level FAA TRACON SMA TRACON (SMA)
Thu 10:09:19 AM 35.1406 -89.9750 179° South 165 190 2,000 -375 Level FAA TRACON SMA TRACON (SMA)
Thu 10:09:59 AM 35.1119 -89.9744 178° South 164 189 1,500 -750 Descending FAA TRACON SMA TRACON (SMA)
Thu 10:10:39 AM 35.0875 -89.9736 179° South 132 152 1,000 -667 Descending FAA TRACON SMA TRACON (SMA)
Thu 10:11:20 AM 35.0639 -89.9733 178° South 127 146 600 -375 Descending FAA TRACON SMA TRACON (SMA)
Thu 10:11:59 AM 35.0572 -89.9731 167° South 127 146 500 -154 Descending FAA TRACON SMA TRACON (SMA)
Thu 10:19:15 AM 34.7743 -89.8915 345° North  Level FlightAware Approximate
Thu 10:20:15 AM 34.8872 -89.9282 349° North  Level FlightAware Approximate
Thu 10:21:15 AM 35.0018 -89.9562 338° Northwest  Level FlightAware Approximate
Thu 10:22:15 AM 35.1101 -90.0109 155° Southeast  Level Estimated
Thu 10:23:15 AM 35.0333 -89.9667 318° Northwest  Level FlightAware Approximate
Thu 10:24:15 AM 35.1203 -90.0625 138° Southeast  Level Estimated
Thu 10:25:15 AM 35.0333 -89.9667 318° Northwest  Level FlightAware Approximate
Thu 10:26:15 AM 35.1203 -90.0625 138° Southeast  Level Estimated
Thu 10:27:15 AM 35.0333 -89.9667 318° Northwest  Level FlightAware Approximate
Thu 10:28:15 AM 35.1203 -90.0625 138° Southeast  Level Estimated
Thu 10:29:15 AM 35.0333 -89.9667 138° Southeast  Level FlightAware Approximate

Login

Don't have an account? Register now (free) for customized features, flight alerts, and more!